createdAt,value
2022-10-09T00:01:28.181Z,14.06
2022-10-09T00:03:57.968Z,14.01
2022-10-09T00:06:30.182Z,13.96
2022-10-09T00:08:59.633Z,13.97
2022-10-09T00:11:29.747Z,13.78
2022-10-09T00:13:58.628Z,13.93
2022-10-09T00:16:28.703Z,14.04
2022-10-09T00:18:57.035Z,14.06
2022-10-09T00:21:28.286Z,14.07
2022-10-09T00:23:58.541Z,14.09
2022-10-09T00:26:27.594Z,14.09
2022-10-09T00:28:57.035Z,13.87
2022-10-09T00:31:26.214Z,14.06
2022-10-09T00:33:54.516Z,13.99
2022-10-09T00:36:24.202Z,14.10
2022-10-09T00:38:55.735Z,14.13
2022-10-09T00:41:27.124Z,14.15
2022-10-09T00:43:57.098Z,14.16
2022-10-09T00:46:29.835Z,14.18
2022-10-09T00:49:03.673Z,14.20
2022-10-09T00:51:33.595Z,14.22
2022-10-09T00:54:06.321Z,14.24
2022-10-09T00:56:35.620Z,14.24
2022-10-09T00:59:04.874Z,14.28
2022-10-09T01:01:33.237Z,14.30
2022-10-09T01:04:01.577Z,14.34
2022-10-09T01:06:40.623Z,14.38
2022-10-09T01:09:15.356Z,14.41
2022-10-09T01:11:52.960Z,14.46
2022-10-09T01:14:27.347Z,14.21
2022-10-09T01:17:03.108Z,13.72
2022-10-09T01:19:51.371Z,14.12
2022-10-09T01:22:34.032Z,14.43
2022-10-09T01:25:08.997Z,14.46
2022-10-09T01:27:39.245Z,14.47
2022-10-09T01:30:10.658Z,14.49
2022-10-09T01:32:42.759Z,14.50
2022-10-09T01:35:13.885Z,14.51
2022-10-09T01:37:45.551Z,14.47
2022-10-09T01:40:17.248Z,14.27
2022-10-09T01:42:48.033Z,14.42
2022-10-09T01:45:16.926Z,14.36
2022-10-09T01:47:45.310Z,14.32
2022-10-09T01:50:19.824Z,14.29
2022-10-09T01:52:52.173Z,14.26
2022-10-09T01:55:32.695Z,14.23
2022-10-09T01:58:07.712Z,14.22
2022-10-09T02:00:41.065Z,14.22
2022-10-09T02:03:13.042Z,14.22
2022-10-09T02:05:43.426Z,14.23
2022-10-09T02:08:14.785Z,14.24
2022-10-09T02:10:45.631Z,14.24
2022-10-09T02:13:15.394Z,14.25
2022-10-09T02:15:48.859Z,14.28
2022-10-09T02:18:26.882Z,14.31
2022-10-09T02:21:01.487Z,14.32
2022-10-09T02:23:30.591Z,14.33
2022-10-09T02:25:59.247Z,14.33
2022-10-09T02:28:29.112Z,14.35
2022-10-09T02:31:02.936Z,14.38
2022-10-09T02:33:35.248Z,14.37
2022-10-09T02:36:03.986Z,14.35
2022-10-09T02:38:32.138Z,14.30
2022-10-09T02:41:01.012Z,14.26
2022-10-09T02:43:31.059Z,14.24
2022-10-09T02:45:59.352Z,14.22
2022-10-09T02:48:27.591Z,14.24
2022-10-09T02:50:55.914Z,14.21
2022-10-09T02:53:24.282Z,14.24
2022-10-09T02:55:52.546Z,14.26
2022-10-09T02:58:21.228Z,14.28
2022-10-09T03:00:52.029Z,14.28
2022-10-09T03:03:21.580Z,14.37
2022-10-09T03:05:49.979Z,14.37
2022-10-09T03:08:18.160Z,14.39
2022-10-09T03:10:46.453Z,14.38
2022-10-09T03:13:14.628Z,14.39
2022-10-09T03:15:43.015Z,14.38
2022-10-09T03:18:12.714Z,14.40
2022-10-09T03:20:41.198Z,14.37
2022-10-09T03:23:10.461Z,14.36
2022-10-09T03:25:38.883Z,14.35
2022-10-09T03:28:07.221Z,14.34
2022-10-09T03:30:35.507Z,14.34
2022-10-09T03:33:03.723Z,14.35
2022-10-09T03:35:33.392Z,14.34
2022-10-09T03:38:01.635Z,14.36
2022-10-09T03:40:29.990Z,14.38
2022-10-09T03:42:58.299Z,14.38
2022-10-09T03:45:26.960Z,14.36
2022-10-09T03:47:55.211Z,14.35
2022-10-09T03:50:23.487Z,14.36
2022-10-09T03:52:53.247Z,14.35
2022-10-09T03:55:21.465Z,14.32
2022-10-09T03:57:49.691Z,14.31
2022-10-09T04:00:18.286Z,14.30
2022-10-09T04:02:46.911Z,14.26
2022-10-09T04:05:15.542Z,14.30
2022-10-09T04:07:43.830Z,14.31
2022-10-09T04:10:13.897Z,14.32
2022-10-09T04:12:42.295Z,14.31
2022-10-09T04:15:11.936Z,14.30
2022-10-09T04:17:40.158Z,14.31
2022-10-09T04:20:09.316Z,14.33
2022-10-09T04:22:37.559Z,14.34
2022-10-09T04:25:06.531Z,14.34
2022-10-09T04:27:36.142Z,14.31
2022-10-09T04:30:05.170Z,14.27
2022-10-09T04:32:33.377Z,14.27
2022-10-09T04:35:01.668Z,14.26
2022-10-09T04:37:29.970Z,14.23
2022-10-09T04:39:58.211Z,14.21
2022-10-09T04:42:26.443Z,14.18
2022-10-09T04:44:56.179Z,14.19
2022-10-09T04:47:24.403Z,14.17
2022-10-09T04:49:52.630Z,14.16
2022-10-09T04:52:20.873Z,14.16
2022-10-09T04:54:49.238Z,14.16
2022-10-09T04:57:17.436Z,14.16
2022-10-09T04:59:45.688Z,14.18
2022-10-09T05:02:15.340Z,14.20
2022-10-09T05:04:44.152Z,14.18
2022-10-09T05:07:12.335Z,14.17
2022-10-09T05:09:40.661Z,13.87
2022-10-09T05:12:08.984Z,14.12
2022-10-09T05:14:37.179Z,14.11
2022-10-09T05:17:14.606Z,14.13
2022-10-09T05:19:45.747Z,14.15
2022-10-09T05:22:13.991Z,14.14
2022-10-09T05:24:42.408Z,14.13
2022-10-09T05:27:10.642Z,14.14
2022-10-09T05:29:38.851Z,14.10
2022-10-09T05:32:07.346Z,14.07
2022-10-09T05:34:35.998Z,14.05
2022-10-09T05:37:05.736Z,14.03
2022-10-09T05:39:35.933Z,13.85
2022-10-09T05:42:04.429Z,13.98
2022-10-09T05:44:32.633Z,14.00
2022-10-09T05:47:00.900Z,13.98
2022-10-09T05:49:29.123Z,13.99
2022-10-09T05:51:57.402Z,14.02
2022-10-09T05:54:27.417Z,14.02
2022-10-09T05:56:55.744Z,14.00
2022-10-09T05:59:24.007Z,14.01
2022-10-09T06:01:54.940Z,13.99
2022-10-09T06:04:25.224Z,13.97
2022-10-09T06:06:53.622Z,13.96
2022-10-09T06:09:24.116Z,13.96
2022-10-09T06:11:54.973Z,13.97
2022-10-09T06:14:24.529Z,13.97
2022-10-09T06:16:53.237Z,14.02
2022-10-09T06:19:23.066Z,13.98
2022-10-09T06:21:52.012Z,14.05
2022-10-09T06:24:27.249Z,14.08
2022-10-09T06:26:58.985Z,14.14
2022-10-09T06:29:27.868Z,14.04
2022-10-09T06:31:56.112Z,14.23
2022-10-09T06:34:24.644Z,14.30
2022-10-09T06:36:53.183Z,14.33
2022-10-09T06:39:22.576Z,14.38
2022-10-09T06:41:51.483Z,14.43
2022-10-09T06:44:41.848Z,14.43
2022-10-09T06:47:10.074Z,14.47
2022-10-09T06:49:38.302Z,14.52
2022-10-09T06:52:06.687Z,14.60
2022-10-09T06:54:34.970Z,14.67
2022-10-09T06:57:03.252Z,14.74
2022-10-09T06:59:31.815Z,14.83
2022-10-09T07:02:01.650Z,14.90
2022-10-09T07:04:29.997Z,14.96
2022-10-09T07:06:58.211Z,15.02
2022-10-09T07:09:27.573Z,15.13
2022-10-09T07:11:55.767Z,15.16
2022-10-09T07:14:23.985Z,15.28
2022-10-09T07:16:53.458Z,15.39
2022-10-09T07:19:23.113Z,15.54
2022-10-09T07:21:53.213Z,15.63
2022-10-09T07:24:21.622Z,15.78
2022-10-09T07:26:51.217Z,15.94
2022-10-09T07:29:20.918Z,16.09
2022-10-09T07:31:50.438Z,16.19
2022-10-09T07:34:18.691Z,16.31
2022-10-09T07:36:48.423Z,16.16
2022-10-09T07:39:19.218Z,16.47
2022-10-09T07:41:47.865Z,16.57
2022-10-09T07:44:16.178Z,16.56
2022-10-09T07:46:44.763Z,16.58
2022-10-09T07:49:12.968Z,16.59
2022-10-09T07:51:41.256Z,16.66
2022-10-09T07:54:10.942Z,16.74
2022-10-09T07:56:39.259Z,16.79
2022-10-09T07:59:09.321Z,16.79
2022-10-09T08:01:37.900Z,16.89
2022-10-09T08:04:06.975Z,16.89
2022-10-09T08:06:36.126Z,16.87
2022-10-09T08:09:06.332Z,16.89
2022-10-09T08:11:36.313Z,16.96
2022-10-09T08:14:04.489Z,17.07
2022-10-09T08:16:32.989Z,17.24
2022-10-09T08:19:02.294Z,17.41
2022-10-09T08:21:33.014Z,17.59
2022-10-09T08:24:01.496Z,17.72
2022-10-09T08:26:31.967Z,17.83
2022-10-09T08:29:02.994Z,17.90
2022-10-09T08:31:32.630Z,17.86
2022-10-09T08:34:03.234Z,17.68
2022-10-09T08:36:32.464Z,17.85
2022-10-09T08:39:01.927Z,17.83
2022-10-09T08:41:43.444Z,17.85
2022-10-09T08:44:18.064Z,17.85
2022-10-09T08:46:55.886Z,17.86
2022-10-09T08:49:28.358Z,17.81
2022-10-09T08:51:59.343Z,17.86
2022-10-09T08:54:34.186Z,17.91
2022-10-09T08:57:06.542Z,17.96
2022-10-09T08:59:36.243Z,18.02
2022-10-09T09:02:16.869Z,18.13
2022-10-09T09:04:56.760Z,18.18
2022-10-09T09:07:33.301Z,18.23
2022-10-09T09:10:06.794Z,18.30
2022-10-09T09:12:45.621Z,18.35
2022-10-09T09:15:36.329Z,18.35
2022-10-09T09:18:18.682Z,18.33
2022-10-09T09:20:53.585Z,18.40
2022-10-09T09:23:28.658Z,18.48
2022-10-09T09:25:59.556Z,18.53
2022-10-09T09:28:31.664Z,18.63
2022-10-09T09:31:07.409Z,18.77
2022-10-09T09:33:44.595Z,18.91
2022-10-09T09:36:19.502Z,19.03
2022-10-09T09:39:13.561Z,19.12
2022-10-09T09:41:36.054Z,19.20
2022-10-09T09:44:04.819Z,19.28
2022-10-09T09:46:35.223Z,19.36
2022-10-09T09:49:08.538Z,19.39
2022-10-09T09:51:37.988Z,19.44
2022-10-09T09:54:09.150Z,19.49
2022-10-09T09:57:10.293Z,19.49
2022-10-09T09:59:34.032Z,19.26
2022-10-09T10:02:05.503Z,19.41
2022-10-09T10:04:34.293Z,19.51
2022-10-09T10:07:02.659Z,19.58
2022-10-09T10:09:31.989Z,19.61
2022-10-09T10:12:03.993Z,19.66
2022-10-09T10:14:33.891Z,19.73
2022-10-09T10:17:04.500Z,19.84
2022-10-09T10:19:35.362Z,19.34
2022-10-09T10:22:05.925Z,20.03
2022-10-09T10:24:40.103Z,20.07
2022-10-09T10:27:15.351Z,20.14
2022-10-09T10:29:46.700Z,20.18
2022-10-09T10:32:22.863Z,20.27
2022-10-09T10:34:59.371Z,20.38
2022-10-09T10:37:34.770Z,20.55
2022-10-09T10:40:07.174Z,20.56
2022-10-09T10:42:42.057Z,20.50
2022-10-09T10:45:17.591Z,20.59
2022-10-09T10:47:52.704Z,20.65
2022-10-09T10:50:22.002Z,20.73
2022-10-09T10:53:03.308Z,20.84
2022-10-09T10:55:44.761Z,20.92
2022-10-09T10:58:26.537Z,20.90
2022-10-09T11:01:11.249Z,20.88
2022-10-09T11:04:02.151Z,20.87
2022-10-09T11:06:40.258Z,20.86
2022-10-09T11:09:16.388Z,20.77
2022-10-09T11:11:52.075Z,20.73
2022-10-09T11:14:35.595Z,20.62
2022-10-09T11:17:12.246Z,20.54
2022-10-09T11:20:12.970Z,20.48
2022-10-09T11:22:57.729Z,20.45
2022-10-09T11:25:31.843Z,20.40
2022-10-09T11:28:06.177Z,20.36
2022-10-09T11:30:40.451Z,20.32
2022-10-09T11:33:24.066Z,20.18
2022-10-09T11:35:59.994Z,20.22
2022-10-09T11:38:31.106Z,20.24
2022-10-09T11:41:05.043Z,20.24
2022-10-09T11:43:51.415Z,20.31
2022-10-09T11:46:28.629Z,20.38
2022-10-09T11:49:04.444Z,20.43
2022-10-09T11:51:45.549Z,20.44
2022-10-09T11:54:17.488Z,20.42
2022-10-09T11:56:55.553Z,20.44
2022-10-09T11:59:29.990Z,20.44
2022-10-09T12:01:59.457Z,20.51
2022-10-09T12:04:53.557Z,20.54
2022-10-09T12:07:33.458Z,20.57
2022-10-09T12:10:07.533Z,20.68
2022-10-09T12:12:38.873Z,20.80
2022-10-09T12:15:27.235Z,20.97
2022-10-09T12:17:55.677Z,21.09
2022-10-09T12:20:26.398Z,21.09
2022-10-09T12:23:25.339Z,21.28
2022-10-09T12:25:50.838Z,21.27
2022-10-09T12:28:27.117Z,21.18
2022-10-09T12:30:56.647Z,21.35
2022-10-09T12:33:29.013Z,20.78
2022-10-09T12:36:05.047Z,21.22
2022-10-09T12:38:34.795Z,21.16
2022-10-09T12:41:06.174Z,21.06
2022-10-09T12:43:36.511Z,20.95
2022-10-09T12:46:05.031Z,21.03
2022-10-09T12:48:40.529Z,20.99
2022-10-09T12:51:17.489Z,20.94
2022-10-09T12:53:52.387Z,20.90
2022-10-09T12:56:25.863Z,20.93
2022-10-09T12:58:54.757Z,20.93
2022-10-09T13:01:23.690Z,20.87
2022-10-09T13:03:57.583Z,20.89
2022-10-09T13:06:28.665Z,20.86
2022-10-09T13:09:00.898Z,20.86
2022-10-09T13:11:33.427Z,20.90
2022-10-09T13:14:02.966Z,20.91
2022-10-09T13:16:41.565Z,20.92
2022-10-09T13:19:23.571Z,20.94
2022-10-09T13:22:02.485Z,20.92
2022-10-09T13:24:32.242Z,20.91
2022-10-09T13:27:00.471Z,20.92
2022-10-09T13:29:28.768Z,20.91
2022-10-09T13:31:57.002Z,20.87
2022-10-09T13:34:25.448Z,20.82
2022-10-09T13:36:53.749Z,20.81
2022-10-09T13:39:22.059Z,20.80
2022-10-09T13:41:55.758Z,20.83
2022-10-09T13:44:25.178Z,20.77
2022-10-09T13:46:53.556Z,20.78
2022-10-09T13:49:21.853Z,20.92
2022-10-09T13:51:51.364Z,21.01
2022-10-09T13:54:19.735Z,21.02
2022-10-09T13:56:47.943Z,20.98
2022-10-09T13:59:17.756Z,20.94
2022-10-09T14:01:46.112Z,20.88
2022-10-09T14:04:14.442Z,20.83
2022-10-09T14:06:42.706Z,20.77
2022-10-09T14:09:11.269Z,20.72
2022-10-09T14:11:39.466Z,20.67
2022-10-09T14:14:07.701Z,20.69
2022-10-09T14:16:37.379Z,20.69
2022-10-09T14:19:07.311Z,20.67
2022-10-09T14:21:35.581Z,20.66
2022-10-09T14:24:06.726Z,20.12
2022-10-09T14:26:35.308Z,20.64
2022-10-09T14:29:04.164Z,20.64
2022-10-09T14:31:32.490Z,20.66
2022-10-09T14:34:02.207Z,20.68
2022-10-09T14:36:31.700Z,20.61
2022-10-09T14:39:01.014Z,20.71
2022-10-09T14:41:32.142Z,20.72
2022-10-09T14:44:02.615Z,20.77
2022-10-09T14:46:34.017Z,20.80
2022-10-09T14:49:07.475Z,20.77
2022-10-09T14:51:37.605Z,20.75
2022-10-09T14:54:06.895Z,20.73
2022-10-09T14:56:35.731Z,20.72
2022-10-09T14:59:06.005Z,20.63
2022-10-09T15:01:35.988Z,20.71
2022-10-09T15:04:06.490Z,20.71
2022-10-09T15:06:35.437Z,20.69
2022-10-09T15:09:06.184Z,20.57
2022-10-09T15:11:36.814Z,20.59
2022-10-09T15:14:05.902Z,20.54
2022-10-09T15:16:34.276Z,20.48
2022-10-09T15:19:04.671Z,20.46
2022-10-09T15:21:36.193Z,20.46
2022-10-09T15:24:05.792Z,20.43
2022-10-09T15:26:36.349Z,20.23
2022-10-09T15:29:06.012Z,20.28
2022-10-09T15:31:36.811Z,20.34
2022-10-09T15:34:06.455Z,20.31
2022-10-09T15:36:39.756Z,20.02
2022-10-09T15:39:09.203Z,20.25
2022-10-09T15:41:39.628Z,20.22
2022-10-09T15:44:13.506Z,20.04
2022-10-09T15:46:41.751Z,20.18
2022-10-09T15:49:10.183Z,20.15
2022-10-09T15:51:40.099Z,20.17
2022-10-09T15:54:08.363Z,20.15
2022-10-09T15:56:39.912Z,20.15
2022-10-09T15:59:11.807Z,19.87
2022-10-09T16:01:40.101Z,20.15
2022-10-09T16:04:09.633Z,20.13
2022-10-09T16:06:39.410Z,20.12
2022-10-09T16:09:07.685Z,20.12
2022-10-09T16:11:35.925Z,20.07
2022-10-09T16:14:04.664Z,20.09
2022-10-09T16:16:33.086Z,20.06
2022-10-09T16:19:03.900Z,20.03
2022-10-09T16:21:32.346Z,19.99
2022-10-09T16:24:02.384Z,19.96
2022-10-09T16:26:31.213Z,19.93
2022-10-09T16:29:01.193Z,19.90
2022-10-09T16:31:31.624Z,19.71
2022-10-09T16:34:00.272Z,19.83
2022-10-09T16:36:29.540Z,19.80
2022-10-09T16:38:58.721Z,19.78
2022-10-09T16:41:28.358Z,19.75
2022-10-09T16:43:57.954Z,19.71
2022-10-09T16:46:28.350Z,19.40
2022-10-09T16:48:58.443Z,19.67
2022-10-09T16:51:29.347Z,19.64
2022-10-09T16:54:00.031Z,19.55
2022-10-09T16:56:33.463Z,19.52
2022-10-09T16:59:03.464Z,19.30
2022-10-09T17:01:32.429Z,19.45
2022-10-09T17:04:01.993Z,19.42
2022-10-09T17:06:30.274Z,19.32
2022-10-09T17:09:00.139Z,19.36
2022-10-09T17:11:32.470Z,19.21
2022-10-09T17:14:01.147Z,19.32
2022-10-09T17:16:35.822Z,19.31
2022-10-09T17:19:04.854Z,19.25
2022-10-09T17:21:34.667Z,19.26
2022-10-09T17:24:05.911Z,19.29
2022-10-09T17:26:36.240Z,19.31
2022-10-09T17:29:05.352Z,19.32
2022-10-09T17:31:33.636Z,19.32
2022-10-09T17:34:04.637Z,19.31
2022-10-09T17:36:35.039Z,19.28
2022-10-09T17:39:03.632Z,19.22
2022-10-09T17:41:32.410Z,19.19
2022-10-09T17:44:02.360Z,19.19
2022-10-09T17:46:31.045Z,19.17
2022-10-09T17:49:00.143Z,19.16
2022-10-09T17:51:30.980Z,19.10
2022-10-09T17:54:01.254Z,19.08
2022-10-09T17:56:29.871Z,19.07
2022-10-09T17:58:59.585Z,16.56
2022-10-09T18:01:29.699Z,19.03
2022-10-09T18:03:58.374Z,19.01
2022-10-09T18:06:27.871Z,18.97
2022-10-09T18:08:58.053Z,18.90
2022-10-09T18:11:27.914Z,18.85
2022-10-09T18:13:56.346Z,18.83
2022-10-09T18:16:35.342Z,18.82
2022-10-09T18:19:08.673Z,18.84
2022-10-09T18:21:38.610Z,18.84
2022-10-09T18:24:07.623Z,18.68
2022-10-09T18:26:36.179Z,18.82
2022-10-09T18:29:05.294Z,18.79
2022-10-09T18:31:34.891Z,17.48
2022-10-09T18:34:03.212Z,18.73
2022-10-09T18:36:34.606Z,18.72
2022-10-09T18:39:05.056Z,18.75
2022-10-09T18:41:33.970Z,18.75
2022-10-09T18:44:03.070Z,18.74
2022-10-09T18:46:36.942Z,18.77
2022-10-09T18:49:09.490Z,18.76
2022-10-09T18:51:42.069Z,18.74
2022-10-09T18:54:15.718Z,18.67
2022-10-09T18:56:46.373Z,18.57
2022-10-09T18:59:18.941Z,18.50
2022-10-09T19:01:47.384Z,18.42
2022-10-09T19:04:15.928Z,18.38
2022-10-09T19:06:46.253Z,18.38
2022-10-09T19:09:14.873Z,18.35
2022-10-09T19:11:43.164Z,18.27
2022-10-09T19:14:11.405Z,18.20
2022-10-09T19:16:39.760Z,18.15
2022-10-09T19:19:08.068Z,18.11
2022-10-09T19:21:37.993Z,18.09
2022-10-09T19:24:07.968Z,18.05
2022-10-09T19:26:36.411Z,18.01
2022-10-09T19:29:06.185Z,17.68
2022-10-09T19:31:34.847Z,17.91
2022-10-09T19:34:04.066Z,17.88
2022-10-09T19:36:35.076Z,17.84
2022-10-09T19:39:04.614Z,17.83
2022-10-09T19:41:34.511Z,17.82
2022-10-09T19:44:02.798Z,17.78
2022-10-09T19:46:32.071Z,17.76
2022-10-09T19:49:00.361Z,17.73
2022-10-09T19:51:28.696Z,17.71
2022-10-09T19:53:59.034Z,17.52
2022-10-09T19:56:29.585Z,17.72
2022-10-09T19:59:01.880Z,17.70
2022-10-09T20:01:32.893Z,17.66
2022-10-09T20:04:03.147Z,17.65
2022-10-09T20:06:31.486Z,17.63
2022-10-09T20:09:00.437Z,17.62
2022-10-09T20:11:28.712Z,17.60
2022-10-09T20:13:59.651Z,17.62
2022-10-09T20:16:32.120Z,17.62
2022-10-09T20:19:01.222Z,17.59
2022-10-09T20:21:31.491Z,17.40
2022-10-09T20:24:01.636Z,17.56
2022-10-09T20:26:31.570Z,17.53
2022-10-09T20:29:01.812Z,17.51
2022-10-09T20:31:30.398Z,17.50
2022-10-09T20:34:00.167Z,17.21
2022-10-09T20:36:31.346Z,17.52
2022-10-09T20:39:02.234Z,17.52
2022-10-09T20:41:31.920Z,17.52
2022-10-09T20:44:03.464Z,17.49
2022-10-09T20:46:33.883Z,17.48
2022-10-09T20:49:04.216Z,17.45
2022-10-09T20:51:32.630Z,17.43
2022-10-09T20:54:02.970Z,17.46
2022-10-09T20:56:32.733Z,17.50
2022-10-09T20:59:03.209Z,17.49
2022-10-09T21:01:31.565Z,17.49
2022-10-09T21:04:00.376Z,17.50
2022-10-09T21:06:30.193Z,17.48
2022-10-09T21:08:59.051Z,17.44
2022-10-09T21:11:27.483Z,17.45
2022-10-09T21:13:55.856Z,17.48
2022-10-09T21:16:26.487Z,17.33
2022-10-09T21:18:56.472Z,17.44
2022-10-09T21:21:25.274Z,17.47
2022-10-09T21:23:55.853Z,17.48
2022-10-09T21:26:26.500Z,17.27
2022-10-09T21:29:00.305Z,17.47
2022-10-09T21:31:33.152Z,17.45
2022-10-09T21:34:13.360Z,17.44
2022-10-09T21:37:09.012Z,17.39
2022-10-09T21:39:38.934Z,17.45
2022-10-09T21:42:07.764Z,17.45
2022-10-09T21:44:35.985Z,17.44
2022-10-09T21:47:05.845Z,17.45
2022-10-09T21:49:34.072Z,17.45
2022-10-09T21:52:02.357Z,17.48
2022-10-09T21:54:30.701Z,17.50
2022-10-09T21:56:58.952Z,17.49
2022-10-09T21:59:27.185Z,17.47
2022-10-09T22:01:55.571Z,17.48
2022-10-09T22:04:25.264Z,17.49
2022-10-09T22:06:53.907Z,17.46
2022-10-09T22:09:22.351Z,17.45
2022-10-09T22:11:50.818Z,17.45
2022-10-09T22:14:19.097Z,17.43
2022-10-09T22:16:47.336Z,17.46
2022-10-09T22:19:15.714Z,17.48
2022-10-09T22:21:45.470Z,17.48
2022-10-09T22:24:13.713Z,17.45
2022-10-09T22:26:43.023Z,17.35
2022-10-09T22:29:11.325Z,17.46
2022-10-09T22:31:39.818Z,17.43
2022-10-09T22:34:08.075Z,17.44
2022-10-09T22:36:36.361Z,17.42
2022-10-09T22:39:07.563Z,17.34
2022-10-09T22:41:37.147Z,17.33
2022-10-09T22:44:06.930Z,17.34
2022-10-09T22:46:38.622Z,17.32
2022-10-09T22:49:08.120Z,17.27
2022-10-09T22:51:36.393Z,17.16
2022-10-09T22:54:07.039Z,17.27
2022-10-09T22:56:38.246Z,16.99
2022-10-09T22:59:07.275Z,17.20
2022-10-09T23:01:39.148Z,17.20
2022-10-09T23:04:09.453Z,17.22
2022-10-09T23:06:37.962Z,17.23
2022-10-09T23:09:09.467Z,17.26
2022-10-09T23:11:38.004Z,16.92
2022-10-09T23:14:06.967Z,16.99
2022-10-09T23:16:36.181Z,17.19
2022-10-09T23:19:06.977Z,17.18
2022-10-09T23:21:37.094Z,17.05
2022-10-09T23:24:05.881Z,17.19
2022-10-09T23:26:37.017Z,17.22
2022-10-09T23:29:08.202Z,17.04
2022-10-09T23:31:37.770Z,17.20
2022-10-09T23:34:07.369Z,17.20
2022-10-09T23:36:36.437Z,17.22
2022-10-09T23:39:07.016Z,17.19
2022-10-09T23:41:37.180Z,17.13
2022-10-09T23:44:05.554Z,17.11
2022-10-09T23:46:34.543Z,17.09
2022-10-09T23:49:03.035Z,17.10
2022-10-09T23:51:31.749Z,17.11
2022-10-09T23:54:00.642Z,17.14
2022-10-09T23:56:30.812Z,17.15
2022-10-09T23:59:01.850Z,17.11
